Terminal Aerodrome Forecast
Issued by NWS Brownsville, TX

Home | Current Version | Previous Version | Text Only | Print | Product List | Glossary On
Versions: 1 2 3 4 5 6 7 8 9 10 11 12 13 14 15 16 17 18
493
FTUS44 KBRO 261123
TAFMFE
TAF
KMFE 261123Z 2612/2712 16014G21KT P6SM OVC009
     FM261500 15015G22KT P6SM BKN019
     FM261700 15020G26KT P6SM SCT025 SCT250
     FM270000 14017G23KT P6SM SKC
     FM270500 15013KT P6SM SKC=

USA.gov is the U.S. government's official web portal to all federal, state and local government web resources and services.